sensor_id;sensor_type;location;lat;lon;timestamp;pressure;altitude;pressure_sealevel;temperature;humidity
8501;BME280;4288;48.484;10.024;2023-02-18T00:01:26;96509.88;;;10.04;100.00
8501;BME280;4288;48.484;10.024;2023-02-18T00:03:55;96502.44;;;10.13;100.00
8501;BME280;4288;48.484;10.024;2023-02-18T00:06:26;96502.50;;;10.16;100.00
8501;BME280;4288;48.484;10.024;2023-02-18T00:08:54;96501.16;;;10.07;100.00
8501;BME280;4288;48.484;10.024;2023-02-18T00:11:24;96499.13;;;10.00;100.00
8501;BME280;4288;48.484;10.024;2023-02-18T00:13:54;96504.66;;;9.92;100.00
8501;BME280;4288;48.484;10.024;2023-02-18T00:16:23;96505.03;;;9.90;100.00
8501;BME280;4288;48.484;10.024;2023-02-18T00:18:54;96509.81;;;10.00;100.00
8501;BME280;4288;48.484;10.024;2023-02-18T00:21:22;96505.03;;;9.90;100.00
8501;BME280;4288;48.484;10.024;2023-02-18T00:23:49;96509.66;;;9.93;100.00
8501;BME280;4288;48.484;10.024;2023-02-18T00:26:17;96510.63;;;9.85;100.00
8501;BME280;4288;48.484;10.024;2023-02-18T00:28:45;96509.09;;;9.84;100.00
8501;BME280;4288;48.484;10.024;2023-02-18T00:31:17;96501.69;;;9.77;100.00
8501;BME280;4288;48.484;10.024;2023-02-18T00:33:44;96510.06;;;9.76;100.00
8501;BME280;4288;48.484;10.024;2023-02-18T00:36:15;96498.66;;;9.60;100.00
8501;BME280;4288;48.484;10.024;2023-02-18T00:38:44;96497.75;;;9.71;100.00
8501;BME280;4288;48.484;10.024;2023-02-18T00:41:11;96492.34;;;9.68;100.00
8501;BME280;4288;48.484;10.024;2023-02-18T00:43:39;96493.31;;;9.60;100.00
8501;BME280;4288;48.484;10.024;2023-02-18T00:46:06;96489.53;;;9.61;100.00
8501;BME280;4288;48.484;10.024;2023-02-18T00:48:34;96485.06;;;9.65;100.00
8501;BME280;4288;48.484;10.024;2023-02-18T00:51:02;96481.06;;;9.74;100.00
8501;BME280;4288;48.484;10.024;2023-02-18T00:53:31;96477.25;;;9.75;100.00
8501;BME280;4288;48.484;10.024;2023-02-18T00:55:59;96484.09;;;9.73;100.00
8501;BME280;4288;48.484;10.024;2023-02-18T00:58:26;96474.81;;;9.67;100.00
8501;BME280;4288;48.484;10.024;2023-02-18T01:00:54;96480.50;;;9.50;100.00
8501;BME280;4288;48.484;10.024;2023-02-18T01:03:21;96478.97;;;9.49;100.00
8501;BME280;4288;48.484;10.024;2023-02-18T01:05:49;96474.50;;;9.53;100.00
8501;BME280;4288;48.484;10.024;2023-02-18T01:08:18;96476.19;;;9.61;100.00
8501;BME280;4288;48.484;10.024;2023-02-18T01:10:52;96471.00;;;9.68;100.00
8501;BME280;4288;48.484;10.024;2023-02-18T01:13:20;96478.38;;;9.55;100.00
8501;BME280;4288;48.484;10.024;2023-02-18T01:15:47;96471.75;;;9.49;100.00
8501;BME280;4288;48.484;10.024;2023-02-18T01:18:14;96482.56;;;9.56;100.00
8501;BME280;4288;48.484;10.024;2023-02-18T01:20:43;96469.22;;;9.56;100.00
8501;BME280;4288;48.484;10.024;2023-02-18T01:23:12;96460.31;;;9.49;100.00
8501;BME280;4288;48.484;10.024;2023-02-18T01:25:40;96461.00;;;9.46;100.00
8501;BME280;4288;48.484;10.024;2023-02-18T01:28:11;96456.22;;;9.36;100.00
8501;BME280;4288;48.484;10.024;2023-02-18T01:30:39;96449.22;;;9.47;100.00
8501;BME280;4288;48.484;10.024;2023-02-18T01:33:08;96445.75;;;9.46;100.00
8501;BME280;4288;48.484;10.024;2023-02-18T01:35:38;96451.09;;;9.46;100.00
8501;BME280;4288;48.484;10.024;2023-02-18T01:38:05;96450.84;;;9.51;100.00
8501;BME280;4288;48.484;10.024;2023-02-18T01:40:32;96462.78;;;9.57;100.00
8501;BME280;4288;48.484;10.024;2023-02-18T01:43:00;96457.03;;;9.55;100.00
8501;BME280;4288;48.484;10.024;2023-02-18T01:45:56;96461.88;;;9.69;100.00
8501;BME280;4288;48.484;10.024;2023-02-18T01:48:27;96461.47;;;9.67;100.00
8501;BME280;4288;48.484;10.024;2023-02-18T01:51:01;96450.06;;;9.70;100.00
8501;BME280;4288;48.484;10.024;2023-02-18T01:53:35;96456.88;;;9.67;100.00
8501;BME280;4288;48.484;10.024;2023-02-18T01:56:05;96449.94;;;9.63;100.00
8501;BME280;4288;48.484;10.024;2023-02-18T01:58:35;96451.97;;;9.69;100.00
8501;BME280;4288;48.484;10.024;2023-02-18T02:01:04;96453.44;;;9.67;100.00
8501;BME280;4288;48.484;10.024;2023-02-18T02:03:32;96450.50;;;9.72;100.00
8501;BME280;4288;48.484;10.024;2023-02-18T02:05:59;96448.03;;;9.63;100.00
8501;BME280;4288;48.484;10.024;2023-02-18T02:08:28;96438.19;;;9.67;100.00
8501;BME280;4288;48.484;10.024;2023-02-18T02:11:22;96425.41;;;9.76;100.00
8501;BME280;4288;48.484;10.024;2023-02-18T02:14:11;96423.38;;;9.70;100.00
8501;BME280;4288;48.484;10.024;2023-02-18T02:16:52;96420.63;;;9.66;100.00
8501;BME280;4288;48.484;10.024;2023-02-18T02:19:55;96417.34;;;9.73;100.00
8501;BME280;4288;48.484;10.024;2023-02-18T02:26:05;96405.13;;;9.72;100.00
8501;BME280;4288;48.484;10.024;2023-02-18T02:29:23;96413.97;;;9.76;100.00
8501;BME280;4288;48.484;10.024;2023-02-18T02:32:29;96423.78;;;9.72;100.00
8501;BME280;4288;48.484;10.024;2023-02-18T02:35:06;96419.25;;;9.72;100.00
8501;BME280;4288;48.484;10.024;2023-02-18T02:37:41;96417.41;;;9.76;100.00
8501;BME280;4288;48.484;10.024;2023-02-18T02:40:18;96420.50;;;9.78;100.00
8501;BME280;4288;48.484;10.024;2023-02-18T02:42:52;96411.50;;;9.67;100.00
8501;BME280;4288;48.484;10.024;2023-02-18T02:45:32;96416.94;;;9.71;100.00
8501;BME280;4288;48.484;10.024;2023-02-18T02:48:09;96412.63;;;9.66;100.00
8501;BME280;4288;48.484;10.024;2023-02-18T02:50:44;96413.97;;;9.57;100.00
8501;BME280;4288;48.484;10.024;2023-02-18T02:53:15;96415.78;;;9.53;100.00
8501;BME280;4288;48.484;10.024;2023-02-18T02:55:45;96413.13;;;9.53;100.00
8501;BME280;4288;48.484;10.024;2023-02-18T02:58:15;96420.34;;;9.52;100.00
8501;BME280;4288;48.484;10.024;2023-02-18T03:00:55;96410.09;;;9.35;100.00
8501;BME280;4288;48.484;10.024;2023-02-18T03:03:49;96415.78;;;9.34;100.00
8501;BME280;4288;48.484;10.024;2023-02-18T03:06:45;96410.84;;;9.17;100.00
8501;BME280;4288;48.484;10.024;2023-02-18T03:09:23;96408.19;;;9.17;100.00
8501;BME280;4288;48.484;10.024;2023-02-18T03:12:00;96408.38;;;9.27;100.00
8501;BME280;4288;48.484;10.024;2023-02-18T03:14:33;96410.13;;;9.20;100.00
8501;BME280;4288;48.484;10.024;2023-02-18T03:17:11;96407.66;;;9.11;100.00
8501;BME280;4288;48.484;10.024;2023-02-18T03:19:46;96402.66;;;9.10;100.00
8501;BME280;4288;48.484;10.024;2023-02-18T03:22:22;96400.28;;;9.05;100.00
8501;BME280;4288;48.484;10.024;2023-02-18T03:24:53;96401.66;;;8.98;100.00
8501;BME280;4288;48.484;10.024;2023-02-18T03:27:24;96400.00;;;9.10;100.00
8501;BME280;4288;48.484;10.024;2023-02-18T03:30:06;96393.56;;;9.11;100.00
8501;BME280;4288;48.484;10.024;2023-02-18T03:32:37;96391.50;;;9.04;100.00
8501;BME280;4288;48.484;10.024;2023-02-18T03:35:08;96389.03;;;8.95;100.00
8501;BME280;4288;48.484;10.024;2023-02-18T03:37:41;96395.16;;;8.80;100.00
8501;BME280;4288;48.484;10.024;2023-02-18T03:40:10;96404.97;;;8.76;100.00
8501;BME280;4288;48.484;10.024;2023-02-18T03:42:38;96403.44;;;8.75;100.00
8501;BME280;4288;48.484;10.024;2023-02-18T03:45:05;96392.78;;;8.75;100.00
8501;BME280;4288;48.484;10.024;2023-02-18T03:47:33;96391.06;;;8.67;100.00
8501;BME280;4288;48.484;10.024;2023-02-18T03:50:00;96378.69;;;8.59;100.00
8501;BME280;4288;48.484;10.024;2023-02-18T03:52:27;96388.47;;;8.71;100.00
8501;BME280;4288;48.484;10.024;2023-02-18T03:54:56;96374.13;;;8.75;100.00
8501;BME280;4288;48.484;10.024;2023-02-18T03:57:23;96378.75;;;8.78;100.00
8501;BME280;4288;48.484;10.024;2023-02-18T03:59:51;96375.66;;;8.76;100.00
8501;BME280;4288;48.484;10.024;2023-02-18T04:02:18;96373.19;;;8.68;100.00
8501;BME280;4288;48.484;10.024;2023-02-18T04:04:45;96365.19;;;8.68;100.00
8501;BME280;4288;48.484;10.024;2023-02-18T04:07:13;96363.03;;;8.73;100.00
8501;BME280;4288;48.484;10.024;2023-02-18T04:09:40;96364.22;;;8.60;100.00
8501;BME280;4288;48.484;10.024;2023-02-18T04:12:09;96361.31;;;8.65;100.00
8501;BME280;4288;48.484;10.024;2023-02-18T04:14:36;96373.78;;;8.61;100.00
8501;BME280;4288;48.484;10.024;2023-02-18T04:17:04;96372.66;;;8.62;100.00
8501;BME280;4288;48.484;10.024;2023-02-18T04:19:31;96371.97;;;8.65;100.00
8501;BME280;4288;48.484;10.024;2023-02-18T04:21:58;96375.59;;;8.57;100.00
8501;BME280;4288;48.484;10.024;2023-02-18T04:24:26;96383.50;;;8.54;100.00
8501;BME280;4288;48.484;10.024;2023-02-18T04:26:53;96385.66;;;8.48;100.00
8501;BME280;4288;48.484;10.024;2023-02-18T04:29:22;96383.59;;;8.57;100.00
8501;BME280;4288;48.484;10.024;2023-02-18T04:31:49;96385.47;;;8.57;100.00
8501;BME280;4288;48.484;10.024;2023-02-18T04:34:17;96393.53;;;8.60;100.00
8501;BME280;4288;48.484;10.024;2023-02-18T04:36:44;96396.97;;;8.61;100.00
8501;BME280;4288;48.484;10.024;2023-02-18T04:39:11;96404.97;;;8.61;100.00
8501;BME280;4288;48.484;10.024;2023-02-18T04:41:39;96403.00;;;8.58;100.00
8501;BME280;4288;48.484;10.024;2023-02-18T04:44:06;96406.84;;;8.60;100.00
8501;BME280;4288;48.484;10.024;2023-02-18T04:46:35;96396.31;;;8.64;100.00
8501;BME280;4288;48.484;10.024;2023-02-18T04:49:02;96399.72;;;8.64;100.00
8501;BME280;4288;48.484;10.024;2023-02-18T04:51:29;96397.19;;;8.52;100.00
8501;BME280;4288;48.484;10.024;2023-02-18T04:53:57;96403.53;;;8.63;100.00
8501;BME280;4288;48.484;10.024;2023-02-18T04:56:24;96390.19;;;8.63;100.00
8501;BME280;4288;48.484;10.024;2023-02-18T04:58:51;96382.81;;;8.57;100.00
8501;BME280;4288;48.484;10.024;2023-02-18T05:01:19;96395.69;;;8.55;100.00
8501;BME280;4288;48.484;10.024;2023-02-18T05:03:48;96381.94;;;8.53;100.00
8501;BME280;4288;48.484;10.024;2023-02-18T05:06:15;96381.94;;;8.53;100.00
8501;BME280;4288;48.484;10.024;2023-02-18T05:08:42;96387.97;;;8.50;100.00
8501;BME280;4288;48.484;10.024;2023-02-18T05:11:09;96386.69;;;8.44;100.00
8501;BME280;4288;48.484;10.024;2023-02-18T05:13:37;96391.50;;;8.38;100.00
8501;BME280;4288;48.484;10.024;2023-02-18T05:16:04;96391.75;;;8.33;100.00
8501;BME280;4288;48.484;10.024;2023-02-18T05:18:32;96379.34;;;8.25;100.00
8501;BME280;4288;48.484;10.024;2023-02-18T05:21:00;96380.22;;;8.29;100.00
8501;BME280;4288;48.484;10.024;2023-02-18T05:23:28;96388.81;;;8.23;100.00
8501;BME280;4288;48.484;10.024;2023-02-18T05:25:55;96383.03;;;8.21;100.00
8501;BME280;4288;48.484;10.024;2023-02-18T05:28:22;96388.28;;;8.17;100.00
8501;BME280;4288;48.484;10.024;2023-02-18T05:30:50;96387.66;;;8.08;100.00
8501;BME280;4288;48.484;10.024;2023-02-18T05:33:17;96397.72;;;8.15;100.00
8501;BME280;4288;48.484;10.024;2023-02-18T05:35:44;96398.72;;;8.10;100.00
8501;BME280;4288;48.484;10.024;2023-02-18T05:38:12;96398.56;;;8.03;100.00
8501;BME280;4288;48.484;10.024;2023-02-18T05:40:40;96402.41;;;8.05;100.00
8501;BME280;4288;48.484;10.024;2023-02-18T05:43:07;96407.84;;;8.09;100.00
8501;BME280;4288;48.484;10.024;2023-02-18T05:45:34;96406.81;;;8.13;100.00
8501;BME280;4288;48.484;10.024;2023-02-18T05:48:01;96410.34;;;8.18;100.00
8501;BME280;4288;48.484;10.024;2023-02-18T05:50:29;96408.03;;;8.16;100.00
8501;BME280;4288;48.484;10.024;2023-02-18T05:52:56;96407.16;;;8.12;100.00
8501;BME280;4288;48.484;10.024;2023-02-18T05:55:24;96408.09;;;8.20;100.00
8501;BME280;4288;48.484;10.024;2023-02-18T05:57:51;96417.56;;;8.17;100.00
8501;BME280;4288;48.484;10.024;2023-02-18T06:00:19;96410.50;;;8.09;100.00
8501;BME280;4288;48.484;10.024;2023-02-18T06:02:46;96413.34;;;8.16;100.00
8501;BME280;4288;48.484;10.024;2023-02-18T06:05:13;96419.03;;;8.15;100.00
8501;BME280;4288;48.484;10.024;2023-02-18T06:07:40;96417.22;;;8.19;100.00
8501;BME280;4288;48.484;10.024;2023-02-18T06:10:08;96418.09;;;8.23;100.00
8501;BME280;4288;48.484;10.024;2023-02-18T06:12:36;96420.09;;;8.26;100.00
8501;BME280;4288;48.484;10.024;2023-02-18T06:15:04;96416.31;;;8.27;100.00
8501;BME280;4288;48.484;10.024;2023-02-18T06:17:31;96418.06;;;8.35;100.00
8501;BME280;4288;48.484;10.024;2023-02-18T06:19:59;96423.38;;;8.35;100.00
8501;BME280;4288;48.484;10.024;2023-02-18T06:22:26;96424.56;;;8.37;100.00
8501;BME280;4288;48.484;10.024;2023-02-18T06:24:53;96421.47;;;8.35;100.00
8501;BME280;4288;48.484;10.024;2023-02-18T06:27:20;96424.56;;;8.37;100.00
8501;BME280;4288;48.484;10.024;2023-02-18T06:29:48;96420.09;;;8.41;100.00
8501;BME280;4288;48.484;10.024;2023-02-18T06:32:15;96422.34;;;8.39;100.00
8501;BME280;4288;48.484;10.024;2023-02-18T06:34:43;96422.34;;;8.39;100.00
8501;BME280;4288;48.484;10.024;2023-02-18T06:37:10;96417.34;;;8.38;100.00
8501;BME280;4288;48.484;10.024;2023-02-18T06:39:38;96417.78;;;8.40;100.00
8501;BME280;4288;48.484;10.024;2023-02-18T06:42:05;96412.09;;;8.41;100.00
8501;BME280;4288;48.484;10.024;2023-02-18T06:44:32;96416.34;;;8.42;100.00
8501;BME280;4288;48.484;10.024;2023-02-18T06:47:01;96407.41;;;8.50;100.00
8501;BME280;4288;48.484;10.024;2023-02-18T06:49:28;96418.06;;;8.50;100.00
8501;BME280;4288;48.484;10.024;2023-02-18T06:51:55;96421.16;;;8.52;100.00
8501;BME280;4288;48.484;10.024;2023-02-18T06:54:22;96414.25;;;8.51;100.00
8501;BME280;4288;48.484;10.024;2023-02-18T06:56:49;96405.50;;;8.51;100.00
8501;BME280;4288;48.484;10.024;2023-02-18T06:59:17;96410.56;;;8.56;100.00
8501;BME280;4288;48.484;10.024;2023-02-18T07:01:44;96415.28;;;8.62;100.00
8501;BME280;4288;48.484;10.024;2023-02-18T07:04:12;96416.91;;;8.67;100.00
8501;BME280;4288;48.484;10.024;2023-02-18T07:06:39;96417.78;;;8.71;100.00
8501;BME280;4288;48.484;10.024;2023-02-18T07:09:06;96415.19;;;8.74;100.00
8501;BME280;4288;48.484;10.024;2023-02-18T07:11:33;96415.63;;;8.76;100.00
8501;BME280;4288;48.484;10.024;2023-02-18T07:14:00;96411.50;;;8.79;100.00
8501;BME280;4288;48.484;10.024;2023-02-18T07:16:27;96411.16;;;8.80;100.00
8501;BME280;4288;48.484;10.024;2023-02-18T07:18:54;96403.59;;;8.82;100.00
8501;BME280;4288;48.484;10.024;2023-02-18T07:21:23;96412.88;;;8.88;100.00
8501;BME280;4288;48.484;10.024;2023-02-18T07:23:50;96407.19;;;8.90;100.00
8501;BME280;4288;48.484;10.024;2023-02-18T07:26:17;96414.56;;;8.96;100.00
8501;BME280;4288;48.484;10.024;2023-02-18T07:28:44;96414.22;;;8.98;100.00
8501;BME280;4288;48.484;10.024;2023-02-18T07:31:11;96411.69;;;9.05;100.00
8501;BME280;4288;48.484;10.024;2023-02-18T07:33:38;96404.13;;;9.07;100.00
8501;BME280;4288;48.484;10.024;2023-02-18T07:36:07;96392.34;;;9.08;100.00
8501;BME280;4288;48.484;10.024;2023-02-18T07:38:36;96395.09;;;9.12;100.00
8501;BME280;4288;48.484;10.024;2023-02-18T07:41:03;96395.59;;;9.17;100.00
8501;BME280;4288;48.484;10.024;2023-02-18T07:43:30;96401.34;;;9.19;100.00
8501;BME280;4288;48.484;10.024;2023-02-18T07:45:57;96402.63;;;9.25;100.00
8501;BME280;4288;48.484;10.024;2023-02-18T07:48:25;96405.28;;;9.25;100.00
8501;BME280;4288;48.484;10.024;2023-02-18T07:50:52;96397.66;;;9.24;100.00
8501;BME280;4288;48.484;10.024;2023-02-18T07:53:19;96396.59;;;9.28;100.00
8501;BME280;4288;48.484;10.024;2023-02-18T07:55:47;96392.44;;;9.31;100.00
8501;BME280;4288;48.484;10.024;2023-02-18T07:58:20;96396.69;;;9.32;100.00
8501;BME280;4288;48.484;10.024;2023-02-18T08:00:48;96381.53;;;9.36;100.00
8501;BME280;4288;48.484;10.024;2023-02-18T08:03:17;96381.59;;;9.39;100.00
8501;BME280;4288;48.484;10.024;2023-02-18T08:05:46;96380.88;;;9.42;100.00
8501;BME280;4288;48.484;10.024;2023-02-18T08:08:15;96376.75;;;9.45;100.00
8501;BME280;4288;48.484;10.024;2023-02-18T08:10:42;96371.88;;;9.50;100.00
8501;BME280;4288;48.484;10.024;2023-02-18T08:13:11;96379.69;;;9.59;100.00
8501;BME280;4288;48.484;10.024;2023-02-18T08:15:39;96377.44;;;9.61;100.00
8501;BME280;4288;48.484;10.024;2023-02-18T08:18:12;96367.75;;;9.72;100.00
8501;BME280;4288;48.484;10.024;2023-02-18T08:20:40;96375.13;;;9.78;100.00
8501;BME280;4288;48.484;10.024;2023-02-18T08:23:08;96369.72;;;9.75;100.00
8501;BME280;4288;48.484;10.024;2023-02-18T08:25:36;96364.91;;;9.84;100.00
8501;BME280;4288;48.484;10.024;2023-02-18T08:28:04;96358.66;;;9.96;100.00
8501;BME280;4288;48.484;10.024;2023-02-18T08:30:32;96355.03;;;10.07;100.00
8501;BME280;4288;48.484;10.024;2023-02-18T08:33:00;96361.28;;;10.15;100.00
8501;BME280;4288;48.484;10.024;2023-02-18T08:35:27;96359.94;;;10.24;100.00
8501;BME280;4288;48.484;10.024;2023-02-18T08:37:54;96364.22;;;10.29;100.00
8501;BME280;4288;48.484;10.024;2023-02-18T08:40:21;96367.94;;;10.24;100.00
8501;BME280;4288;48.484;10.024;2023-02-18T08:42:48;96363.28;;;10.18;100.00
8501;BME280;4288;48.484;10.024;2023-02-18T08:45:15;96363.59;;;10.16;100.00
8501;BME280;4288;48.484;10.024;2023-02-18T08:47:44;96369.50;;;10.25;100.00
8501;BME280;4288;48.484;10.024;2023-02-18T08:50:11;96370.19;;;10.22;100.00
8501;BME280;4288;48.484;10.024;2023-02-18T08:52:38;96356.25;;;10.32;100.00
8501;BME280;4288;48.484;10.024;2023-02-18T08:55:06;96356.97;;;10.29;100.00
8501;BME280;4288;48.484;10.024;2023-02-18T08:57:34;96354.03;;;10.38;100.00
8501;BME280;4288;48.484;10.024;2023-02-18T09:00:01;96346.72;;;10.57;100.00
8501;BME280;4288;48.484;10.024;2023-02-18T09:02:28;96344.19;;;10.64;100.00
8501;BME280;4288;48.484;10.024;2023-02-18T09:04:56;96350.75;;;10.70;100.00
8501;BME280;4288;48.484;10.024;2023-02-18T09:07:23;96344.63;;;10.96;100.00
8501;BME280;4288;48.484;10.024;2023-02-18T09:09:51;96336.50;;;11.15;100.00
8501;BME280;4288;48.484;10.024;2023-02-18T09:12:18;96340.69;;;11.16;100.00
8501;BME280;4288;48.484;10.024;2023-02-18T09:14:46;96343.88;;;11.25;100.00
8501;BME280;4288;48.484;10.024;2023-02-18T09:17:13;96343.47;;;11.23;100.00
8501;BME280;4288;48.484;10.024;2023-02-18T09:19:40;96341.06;;;11.15;100.00
8501;BME280;4288;48.484;10.024;2023-02-18T09:22:09;96339.16;;;11.15;100.00
8501;BME280;4288;48.484;10.024;2023-02-18T09:24:37;96322.34;;;11.15;99.70
8501;BME280;4288;48.484;10.024;2023-02-18T09:27:04;96324.34;;;11.21;99.20
8501;BME280;4288;48.484;10.024;2023-02-18T09:29:33;96320.97;;;11.28;98.61
8501;BME280;4288;48.484;10.024;2023-02-18T09:32:03;96330.16;;;11.60;98.86
8501;BME280;4288;48.484;10.024;2023-02-18T09:34:30;96324.28;;;11.84;96.92
8501;BME280;4288;48.484;10.024;2023-02-18T09:36:58;96327.75;;;11.85;95.39
8501;BME280;4288;48.484;10.024;2023-02-18T09:39:28;96318.59;;;11.86;93.61
8501;BME280;4288;48.484;10.024;2023-02-18T09:41:58;96314.78;;;12.30;91.40
8501;BME280;4288;48.484;10.024;2023-02-18T09:44:30;96308.66;;;12.33;91.94
8501;BME280;4288;48.484;10.024;2023-02-18T09:47:04;96297.53;;;12.28;89.87
8501;BME280;4288;48.484;10.024;2023-02-18T09:49:37;96301.78;;;12.32;88.75
8501;BME280;4288;48.484;10.024;2023-02-18T09:52:11;96301.59;;;12.59;87.53
8501;BME280;4288;48.484;10.024;2023-02-18T09:54:40;96299.28;;;12.57;87.86
8501;BME280;4288;48.484;10.024;2023-02-18T09:57:20;96298.50;;;12.60;86.84
8501;BME280;4288;48.484;10.024;2023-02-18T09:59:55;96289.78;;;12.70;86.66
8501;BME280;4288;48.484;10.024;2023-02-18T10:02:23;96287.06;;;12.67;86.69
8501;BME280;4288;48.484;10.024;2023-02-18T10:04:51;96277.22;;;12.81;85.99
8501;BME280;4288;48.484;10.024;2023-02-18T10:07:22;96279.66;;;13.11;85.15
8501;BME280;4288;48.484;10.024;2023-02-18T10:09:53;96271.72;;;13.32;84.10
8501;BME280;4288;48.484;10.024;2023-02-18T10:12:25;96271.09;;;12.84;84.84
8501;BME280;4288;48.484;10.024;2023-02-18T10:14:55;96265.72;;;12.88;85.18
8501;BME280;4288;48.484;10.024;2023-02-18T10:17:26;96269.19;;;12.88;85.70
8501;BME280;4288;48.484;10.024;2023-02-18T10:19:55;96274.94;;;12.87;84.15
8501;BME280;4288;48.484;10.024;2023-02-18T10:22:24;96260.28;;;13.56;82.47
8501;BME280;4288;48.484;10.024;2023-02-18T10:24:56;96261.09;;;13.71;80.14
8501;BME280;4288;48.484;10.024;2023-02-18T10:27:29;96258.41;;;14.02;81.66
8501;BME280;4288;48.484;10.024;2023-02-18T10:30:02;96248.03;;;13.87;79.48
8501;BME280;4288;48.484;10.024;2023-02-18T10:32:37;96272.28;;;12.97;83.35
8501;BME280;4288;48.484;10.024;2023-02-18T10:35:16;96262.72;;;13.00;84.45
8501;BME280;4288;48.484;10.024;2023-02-18T10:37:59;96274.16;;;12.83;83.26
8501;BME280;4288;48.484;10.024;2023-02-18T10:40:41;96277.13;;;12.71;84.28
8501;BME280;4288;48.484;10.024;2023-02-18T10:43:21;96255.91;;;13.13;83.48
8501;BME280;4288;48.484;10.024;2023-02-18T10:45:59;96262.72;;;13.00;83.76
8501;BME280;4288;48.484;10.024;2023-02-18T10:48:53;96263.38;;;12.76;84.24
8501;BME280;4288;48.484;10.024;2023-02-18T10:51:30;96255.66;;;12.67;85.13
8501;BME280;4288;48.484;10.024;2023-02-18T10:53:58;96259.06;;;12.61;84.69
8501;BME280;4288;48.484;10.024;2023-02-18T10:56:38;96258.97;;;12.46;85.74
8501;BME280;4288;48.484;10.024;2023-02-18T10:59:12;96258.63;;;12.48;86.20
8501;BME280;4288;48.484;10.024;2023-02-18T11:01:40;96259.44;;;12.59;85.33
8501;BME280;4288;48.484;10.024;2023-02-18T11:04:14;96253.66;;;12.53;85.42
8501;BME280;4288;48.484;10.024;2023-02-18T11:06:46;96269.47;;;12.66;85.84
8501;BME280;4288;48.484;10.024;2023-02-18T11:09:31;96258.25;;;12.49;86.71
8501;BME280;4288;48.484;10.024;2023-02-18T11:12:05;96257.25;;;12.79;85.90
8501;BME280;4288;48.484;10.024;2023-02-18T11:14:41;96246.97;;;12.88;85.63
8501;BME280;4288;48.484;10.024;2023-02-18T11:17:17;96253.91;;;12.96;85.42
8501;BME280;4288;48.484;10.024;2023-02-18T11:19:53;96248.94;;;12.98;84.81
8501;BME280;4288;48.484;10.024;2023-02-18T11:22:24;96250.00;;;12.83;83.77
8501;BME280;4288;48.484;10.024;2023-02-18T11:24:54;96245.06;;;12.95;83.65
8501;BME280;4288;48.484;10.024;2023-02-18T11:27:29;96245.09;;;12.99;83.80
8501;BME280;4288;48.484;10.024;2023-02-18T11:30:01;96250.91;;;13.08;84.74
8501;BME280;4288;48.484;10.024;2023-02-18T11:32:32;96240.56;;;13.10;83.25
8501;BME280;4288;48.484;10.024;2023-02-18T11:35:00;96231.34;;;13.07;80.83
8501;BME280;4288;48.484;10.024;2023-02-18T11:37:28;96223.38;;;13.25;81.92
8501;BME280;4288;48.484;10.024;2023-02-18T11:39:58;96224.53;;;13.24;79.78
8501;BME280;4288;48.484;10.024;2023-02-18T11:42:26;96229.94;;;13.42;78.78
8501;BME280;4288;48.484;10.024;2023-02-18T11:44:56;96225.28;;;13.21;78.18
8501;BME280;4288;48.484;10.024;2023-02-18T11:47:27;96206.03;;;13.05;77.33
8501;BME280;4288;48.484;10.024;2023-02-18T11:50:16;96214.56;;;13.38;78.19
8501;BME280;4288;48.484;10.024;2023-02-18T11:52:49;96208.44;;;13.31;77.18
8501;BME280;4288;48.484;10.024;2023-02-18T11:55:20;96214.47;;;13.07;77.56
8501;BME280;4288;48.484;10.024;2023-02-18T11:57:55;96209.78;;;12.93;78.46
8501;BME280;4288;48.484;10.024;2023-02-18T12:00:36;96213.44;;;13.39;77.63
8501;BME280;4288;48.484;10.024;2023-02-18T12:03:14;96211.56;;;13.75;74.62
8501;BME280;4288;48.484;10.024;2023-02-18T12:05:44;96201.16;;;13.28;76.12
8501;BME280;4288;48.484;10.024;2023-02-18T12:08:16;96207.31;;;13.39;76.83
8501;BME280;4288;48.484;10.024;2023-02-18T12:10:48;96200.81;;;14.21;73.85
8501;BME280;4288;48.484;10.024;2023-02-18T12:13:24;96187.00;;;13.70;77.24
8501;BME280;4288;48.484;10.024;2023-02-18T12:16:03;96186.59;;;14.49;73.93
8501;BME280;4288;48.484;10.024;2023-02-18T12:19:07;96187.03;;;14.33;73.08
8501;BME280;4288;48.484;10.024;2023-02-18T12:21:53;96176.25;;;14.08;73.55
8501;BME280;4288;48.484;10.024;2023-02-18T12:24:40;96167.00;;;15.31;69.50
8501;BME280;4288;48.484;10.024;2023-02-18T12:27:19;96169.28;;;16.39;64.70
8501;BME280;4288;48.484;10.024;2023-02-18T12:33:17;96175.00;;;16.03;68.95
8501;BME280;4288;48.484;10.024;2023-02-18T12:35:58;96176.47;;;16.89;64.45
8501;BME280;4288;48.484;10.024;2023-02-18T12:38:53;96181.66;;;15.88;67.55
8501;BME280;4288;48.484;10.024;2023-02-18T12:41:40;96172.88;;;17.00;64.30
8501;BME280;4288;48.484;10.024;2023-02-18T12:44:25;96176.72;;;15.80;66.90
8501;BME280;4288;48.484;10.024;2023-02-18T12:50:34;96179.69;;;17.68;59.05
8501;BME280;4288;48.484;10.024;2023-02-18T12:56:38;96168.06;;;16.43;62.14
8501;BME280;4288;48.484;10.024;2023-02-18T12:59:15;96175.19;;;15.13;64.55
8501;BME280;4288;48.484;10.024;2023-02-18T13:01:53;96180.06;;;14.46;67.42
8501;BME280;4288;48.484;10.024;2023-02-18T13:04:42;96175.50;;;14.08;66.61
8501;BME280;4288;48.484;10.024;2023-02-18T13:07:32;96174.72;;;13.93;69.01
8501;BME280;4288;48.484;10.024;2023-02-18T13:10:45;96174.72;;;14.07;69.00
8501;BME280;4288;48.484;10.024;2023-02-18T13:13:18;96183.56;;;14.33;69.39
8501;BME280;4288;48.484;10.024;2023-02-18T13:15:49;96180.09;;;13.72;70.39
8501;BME280;4288;48.484;10.024;2023-02-18T13:18:22;96174.31;;;13.38;70.56
8501;BME280;4288;48.484;10.024;2023-02-18T13:20:54;96169.31;;;13.40;69.78
8501;BME280;4288;48.484;10.024;2023-02-18T13:23:28;96161.69;;;13.57;70.17
8501;BME280;4288;48.484;10.024;2023-02-18T13:25:59;96168.63;;;15.18;66.35
8501;BME280;4288;48.484;10.024;2023-02-18T13:28:33;96171.03;;;16.19;60.57
8501;BME280;4288;48.484;10.024;2023-02-18T13:31:22;96156.50;;;16.50;59.29
8501;BME280;4288;48.484;10.024;2023-02-18T13:33:59;96182.03;;;13.89;68.31
8501;BME280;4288;48.484;10.024;2023-02-18T13:36:46;96173.19;;;13.71;67.91
8501;BME280;4288;48.484;10.024;2023-02-18T13:39:20;96162.06;;;13.66;68.66
8501;BME280;4288;48.484;10.024;2023-02-18T13:41:50;96155.47;;;13.21;70.11
8501;BME280;4288;48.484;10.024;2023-02-18T13:44:51;96176.94;;;13.21;71.63
8501;BME280;4288;48.484;10.024;2023-02-18T13:47:39;96157.78;;;13.15;71.69